Ilasco, Missouri
Current Conditions -  °F | °C
As of 12:15 AM on Monday 26 Jan 2015 (Local Time) from KHAE Reporting Station
Clear Clear  
Wind Chill: 20°   Ceiling: Unl
Heat Index: 27°   Visibility: 10mi
Dew Point: 23°   Wind: 6mph
Humidity: 86%   Direction: 330°NNW
Pressure: 30.06"   Gusts: NA
Location:  39.7145°N, 91.4209°W
Report Text: KHAE 260615Z AUTO 33005KT 10SM CLR M03/M05 A3006 RMK AO2
Loading
Personal Weather Stations






























Interactive Weather Map New forecast layout! Learn more

10-Day Weather Forecast

Advertisements
Track Severe Weather on mobile